METAR Data
IDs: Format: Raw Decoded Include TAF

Data at: 1335 UTC 14 Dec 2019

PABL 141256Z AUTO 18005KT 10SM CLR M12/M13 A2962 RMK AO2 SLP031 T11171128 FZRANO
PABL 141156Z AUTO 18006KT 10SM CLR M14/M15 A2962 RMK AO2 SLP032 T11391150 11133 21167 50005 FZRANO
PABL 141056Z AUTO 17006KT 10SM CLR M14/M16 A2962 RMK AO2 SLP033 T11441161 FZRANO
PABL 140956Z AUTO 19005KT 10SM CLR M15/M17 A2961 RMK AO2 SLP029 T11501167 FZRANO
PABL 140856Z AUTO 21004KT 10SM CLR M16/M18 A2960 RMK AO2 SLP026 T11611183 52009 FZRANO
PABL 140756Z AUTO 18007KT 10SM SCT110 M15/M17 A2960 RMK AO2 SLP024 T11501172 410891161 FZRANO
PABL 140656Z AUTO 21005KT 10SM CLR M14/M16 A2959 RMK AO2 SLP020 T11391156 FZRANO
PABL 140556Z AUTO 28003KT 10SM FEW100 M13/M16 A2958 RMK AO2 SLP017 T11331156 11100 21133 52020 FZRANO
PABL 140456Z AUTO 19011G15KT 10SM CLR M11/M13 A2956 RMK AO2 SLP010 T11061133 FZRANO
PABL 140356Z AUTO VRB06KT 10SM CLR M12/M15 A2954 RMK AO2 SLP005 T11221150 FZRANO
PABL 140256Z AUTO 11014KT 10SM SCT100 M11/M14 A2952 RMK AO2 SLP997 T11111139 51017 FZRANO
PABL 140156Z AUTO 20005KT 10SM BKN070 M11/M14 A2950 RMK AO2 SLP992 T11061139 FZRANO
PABL 140056Z AUTO 16013G23KT 10SM CLR M10/M13 A2949 RMK AO2 SLP987 T11001128 FZRANO
PABL 132356Z AUTO 13012G19KT 10SM CLR M11/M14 A2947 RMK AO2 SLP981 T11111139 11094 21150 53010 FZRANO
PABL 132256Z AUTO 11015G21KT 10SM CLR M11/M14 A2945 RMK AO2 SLP974 T11061144 FZRANO
PABL 132156Z AUTO 12010KT 10SM OVC037 M10/M14 A2945 RMK AO2 SLP974 T11001139 FZRANO
PABL 132056Z AUTO 15005KT 10SM OVC041 M11/M15 A2944 RMK AO2 SLP971 T11111150 51007 FZRANO
PABL 131856Z AUTO 16009G15KT 10SM BKN045 M12/M17 A2943 RMK AO2 SLP966 T11171167 FZRANO
PABL 131756Z AUTO 16005KT 10SM CLR M14/M20 A2942 RMK AO2 SLP964 T11441200 11089 21156 53001 FZRANO
PABL 131556Z AUTO 13009KT 10SM CLR M13/M18 A2941 RMK AO2 SLP959 T11281183 FZRANO
PABL 131456Z AUTO 12008KT 10SM CLR M11/M18 A2942 RMK AO2 SLP963 T11111178 56008 FZRANO
PABL 131256Z AUTO 18007KT 10SM CLR M11/M17 A2942 RMK AO2 SLP964 T11061172 FZRANO
PABL 131156Z AUTO 15003KT 10SM CLR M10/M17 A2944 RMK AO2 SLP971 T11001167 11078 21161 55000 FZRANO
PABL 131056Z AUTO 18005KT 10SM CLR M14/M16 A2943 RMK AO2 SLP966 T11391161 FZRANO
PABL 130956Z AUTO VRB04KT 10SM CLR M13/M17 A2944 RMK AO2 SLP971 T11281167 FZRANO
PABL 130856Z AUTO 14004KT 10SM CLR M13/M16 A2944 RMK AO2 SLP971 T11331161 56004 FZRANO
PABL 130756Z AUTO 18006KT 10SM CLR M09/M15 A2944 RMK AO2 SLP972 T10941150 410501161 FZRANO
PABL 130656Z AUTO 17007KT 10SM CLR M09/M14 A2944 RMK AO2 SLP972 T10941144 FZRANO
PABL 130556Z AUTO 16008KT 10SM CLR M11/M13 A2945 RMK AO2 SLP975 T11111133 11067 21144 58013 FZRANO
PABL 130456Z AUTO 12005KT 10SM CLR M11/M13 A2947 RMK AO2 SLP980 T11061128 FZRANO
PABL 130356Z AUTO 08003KT 10SM CLR M12/M14 A2948 RMK AO2 SLP983 T11221139 FZRANO
PABL 130256Z AUTO 00000KT 10SM CLR M12/M13 A2949 RMK AO2 SLP988 T11171133 53002 FZRANO
PABL 130156Z AUTO 18006KT 10SM CLR M11/M13 A2948 RMK AO2 SLP983 T11111133 FZRANO